Nearby METAR Reports

 

KTAN - Taunton, Massachusetts, USA
Distance from station: W 5mi, 8km
Updated: 01/20/2020 11:52am
Clear
Clear
 Wind from NNW
Wind: NNW 12 mph , 19 km/h, Gust: 18 mph , 30 km/h
Temperature: 27°F , -3°C
Wind Chill: 16°F , -9°C
Dew Point: 7°F , -14°C
Humidity: 43%
Barometer: 30.17 inHg , 1021.7 hPa
Clouds: Clear
Visibility: 10 miles , 16 km
2020/01/20 16:52 KTAN 201652Z AUTO 33010G16KT 10SM CLR M03/M14 A3017 RMK AO2 SLP215 T10331144
KPYM - Plymouth, Massachusetts, USA
Distance from station: ENE 10mi, 16km
Updated: 01/20/2020 11:52am
Clear
Clear
 Wind from NW
Wind: NW 15 mph , 24 km/h, Gust: 21 mph , 33 km/h
Temperature: 25°F , -4°C
Wind Chill: 13°F , -11°C
Dew Point: 9°F , -13°C
Humidity: 50%
Barometer: 30.15 inHg , 1021 hPa
Clouds: Clear
Visibility: 10 miles , 16 km
2020/01/20 16:52 KPYM 201652Z AUTO 32013G18KT 10SM CLR M04/M13 A3015 RMK AO2 SLP212 T10391133
 
KEWB - New Bedford, Massachusetts, USA
Distance from station: S 14mi, 23km
Updated: 01/20/2020 11:53am
Clear
Clear
 Wind from NNW
Wind: NNW 8 mph , 13 km/h
Temperature: 27°F , -3°C
Wind Chill: 19°F , -7°C
Dew Point: 7°F , -14°C
Humidity: 43%
Barometer: 30.16 inHg , 1021.3 hPa
Clouds: Clear
Visibility: 10 miles , 16 km
2020/01/20 16:53 KEWB 201653Z 33007KT 270V360 10SM CLR M03/M14 A3016 RMK AO2 SLP212 T10331144 $
KGHG - Marshfield, Massachusetts, USA
Distance from station: NE 20mi, 31km
Updated: 01/20/2020 11:55am
Clear
Clear
 Wind from NW
Wind: NW 12 mph , 19 km/h, Gust: 18 mph , 30 km/h
Temperature: 25°F , -4°C
Wind Chill: 14°F , -10°C
Dew Point: 9°F , -13°C
Humidity: 50%
Barometer: 30.16 inHg , 1021.3 hPa
Clouds: Clear
Visibility: 10 miles , 16 km
2020/01/20 16:55 KGHG 201655Z AUTO 31010G16KT 280V340 10SM CLR M04/M13 A3016 RMK AO2
 
KOWD - Norwood, Massachusetts, USA
Distance from station: NNW 24mi, 39km
Updated: 01/20/2020 11:53am
Clear
Clear
 Wind from NW
Wind: NW 9 mph , 15 km/h
Temperature: 28°F , -2°C
Wind Chill: 19°F , -7°C
Dew Point: 7°F , -14°C
Humidity: 40%
Barometer: 30.18 inHg , 1022 hPa
Clouds: Clear
Visibility: 10 miles , 16 km
2020/01/20 16:53 KOWD 201653Z 31008KT 10SM CLR M02/M14 A3018 RMK AO2 SLP219 T10171144
KMQE - East Milton, Massachusetts, USA
Distance from station: NNW 25mi, 40km
Updated: 01/18/2020 7:51pm
NOT Current

 Wind from ESE
Wind: ESE 13 mph , 20 km/h
Temperature: 18°F , -8°C
Wind Chill: 5°F , -15°C
Dew Point: 16°F , -9°C
Humidity: 93%
Barometer: 29.99 inHg , 1015.6 hPa
2020/01/19 00:51 KMQE 190051Z AUTO 12011KT M08/M09 A2999 RMK AO1 PRESFR SLP179 P0005 T10831094
 
KFMH - Falmouth/Otis Ab, Massachusetts, USA
Distance from station: SE 27mi, 44km
Updated: 01/20/2020 11:55am
Clear
Clear
 Wind from NNW
Wind: NNW 12 mph , 19 km/h, Gust: 20 mph , 31 km/h
Temperature: 25°F , -4°C
Wind Chill: 14°F , -10°C
Dew Point: 7°F , -14°C
Humidity: 46%
Barometer: 30.14 inHg , 1020.7 hPa
Clouds: Clear
Visibility: 10 miles , 16 km
2020/01/20 16:55 KFMH 201655Z 34010G17KT 10SM CLR M04/M14 A3014
KPVD - Providence/Green, Rhode Island, USA
Distance from station: WSW 29mi, 47km
Updated: 01/20/2020 11:51am
Few Clouds
Few Clouds
 Wind from NNW
Wind: NNW 15 mph , 24 km/h
Temperature: 25°F , -4°C
Wind Chill: 13°F , -11°C
Dew Point: 7°F , -14°C
Humidity: 46%
Barometer: 30.19 inHg , 1022.4 hPa
Clouds: Few Clouds
Visibility: 10 miles , 16 km
Cloud details: Few Clouds 4200 ft
2020/01/20 16:51 KPVD 201651Z 34013KT 10SM FEW042 M04/M14 A3019 RMK AO2 SLP222 T10391139 $
 
KSFZ - Pawtucket, Rhode Island, USA
Distance from station: W 30mi, 48km
Updated: 01/20/2020 11:56am
Clear
Clear
 Wind from NNW
Wind: NNW 15 mph , 24 km/h
Temperature: 21°F , -6°C
Wind Chill: 7°F , -14°C
Dew Point: 7°F , -14°C
Humidity: 54%
Barometer: 30.16 inHg , 1021.3 hPa
Clouds: Clear
Visibility: 10 miles , 16 km
2020/01/20 16:56 KSFZ 201656Z AUTO 34013KT 10SM CLR M06/M14 A3016 RMK AO2 SLP163 T10561139 FZRANO
KUUU - Newport, Rhode Island, USA
Distance from station: SW 31mi, 50km
Updated: 01/20/2020 10:53am
Clear
Clear
 Wind from NNW
Wind: NNW 13 mph , 20 km/h, Gust: 22 mph , 35 km/h
Temperature: 25°F , -4°C
Wind Chill: 13°F , -11°C
Dew Point: 7°F , -14°C
Humidity: 46%
Barometer: 30.16 inHg , 1021.3 hPa
Clouds: Clear
Visibility: 10 miles , 16 km
2020/01/20 15:53 KUUU 201553Z AUTO 34011G19KT 10SM CLR M04/M14 A3016 RMK AO2 SLP214 T10441139 $
 
KOQU - N. Kingston/Quon, Rhode Island, USA
Distance from station: SW 32mi, 52km
Updated: 01/19/2020 5:50pm
NOT Current
Partly cloudy
Partly cloudy
 Wind from NW
Wind: NW 23 mph , 37 km/h
Temperature: 37°F , 3°C
Wind Chill: 26°F , -3°C
Dew Point: 23°F , -5°C
Humidity: 56%
Barometer: 29.76 inHg , 1007.8 hPa
Clouds: Partly cloudy
Visibility: 10 miles , 16 km
Cloud details: Partly cloudy 5000 ft
2020/01/19 22:50 KOQU 192250Z 32020KT 10SM SCT050 03/M05 A2976 RMK LAST
KBOS - Boston, Massachusetts, USA
Distance from station: N 33mi, 54km
Updated: 01/20/2020 11:54am
Few Clouds
Few Clouds
 Wind from NW
Wind: NW 13 mph , 20 km/h
Temperature: 27°F , -3°C
Wind Chill: 16°F , -9°C
Dew Point: 5°F , -15°C
Humidity: 39%
Barometer: 30.18 inHg , 1022 hPa
Clouds: Few Clouds
Visibility: 10 miles , 16 km
Cloud details: Few Clouds 5000 ft
2020/01/20 16:54 KBOS 201654Z 31011KT 10SM FEW050 M03/M15 A3018 RMK AO2 SLP218 T10331150 $
 
KHYA - Hyannis, Massachusetts, USA
Distance from station: ESE 37mi, 59km
Updated: 01/20/2020 11:56am
Overcast
Overcast
 Wind from NNW
Wind: NNW 12 mph , 19 km/h, Gust: 24 mph , 39 km/h
Temperature: 27°F , -3°C
Wind Chill: 16°F , -9°C
Dew Point: 16°F , -9°C
Humidity: 64%
Barometer: 30.11 inHg , 1019.6 hPa
Clouds: Overcast
Visibility: 10 miles , 16 km
Cloud details: Overcast 3900 ft
2020/01/20 16:56 KHYA 201656Z 33010G21KT 10SM OVC039 M03/M09 A3011 RMK AO2 PK WND 35027/1603 SNE01 SLP199 P0000 T10281094
KMVY - Marthas Vineyard, Massachusetts, USA
Distance from station: SSE 37mi, 60km
Updated: 01/20/2020 11:53am
Clear
Clear
 Wind from NNW
Wind: NNW 13 mph , 20 km/h
Temperature: 27°F , -3°C
Wind Chill: 16°F , -9°C
Dew Point: 10°F , -12°C
Humidity: 50%
Barometer: 30.14 inHg , 1020.7 hPa
Clouds: Clear
Visibility: 10 miles , 16 km
2020/01/20 16:53 KMVY 201653Z 33011KT 10SM CLR M03/M12 A3014 RMK AO2 SLP208 T10281117
 
KPVC - Provincetown, Massachusetts, USA
Distance from station: ENE 38mi, 61km
Updated: 01/20/2020 11:56am
Light snow, Overcast
Light snow, Overcast
 Wind from NNW
Wind: NNW 18 mph , 30 km/h, Gust: 28 mph , 44 km/h
Temperature: 25°F , -4°C
Wind Chill: 11°F , -12°C
Dew Point: 18°F , -8°C
Humidity: 74%
Barometer: 30.15 inHg , 1021 hPa
Summary: Light Snow
Clouds: Overcast
Visibility: 9 miles , 14 km
Cloud details: Mostly cloudy 2100 ft
Overcast 2500 ft
2020/01/20 16:56 KPVC 201656Z AUTO 33016G24KT 9SM -SN BKN021 OVC025 M04/M08 A3015 RMK AO2 SLP208 T10441078 FZRANO PNO $
KBED - Bedford, Massachusetts, USA
Distance from station: NNW 44mi, 72km
Updated: 01/20/2020 11:51am
Clear
Clear
 Wind from WNW
Wind: WNW 12 mph , 19 km/h
Temperature: 25°F , -4°C
Wind Chill: 14°F , -10°C
Dew Point: 1°F , -17°C
Humidity: 36%
Barometer: 30.17 inHg , 1021.7 hPa
Clouds: Clear
Visibility: 10 miles , 16 km
2020/01/20 16:51 KBED 201651Z 29010KT 10SM CLR M04/M17 A3017 RMK AO2 SLP236 T10441167 $
 
KBVY - Beverly, Massachusetts, USA
Distance from station: 0 48mi, 77km
Updated: 01/20/2020 11:53am
Clear
Clear
 Wind from WNW
Wind: WNW 13 mph , 20 km/h
Temperature: 23°F , -5°C
Wind Chill: 11°F , -12°C
Dew Point: 5°F , -15°C
Humidity: 46%
Barometer: 30.16 inHg , 1021.3 hPa
Clouds: Clear
Visibility: 10 miles , 16 km
2020/01/20 16:53 KBVY 201653Z 30011KT 10SM CLR M05/M15 A3016 RMK AO2 SLP211 T10501150 $
KCQX - Chatham, Massachusetts, USA
Distance from station: ESE 49mi, 80km
Updated: 01/20/2020 11:52am
Light snow, Overcast
Light snow, Overcast
 Wind from NW
Wind: NW 12 mph , 19 km/h, Gust: 21 mph , 33 km/h
Temperature: 25°F , -4°C
Wind Chill: 14°F , -10°C
Dew Point: 18°F , -8°C
Humidity: 74%
Barometer: 30.12 inHg , 1020 hPa
Summary: Light Snow
Clouds: Overcast
Visibility: 4 miles , 6 km
Cloud details: Mostly cloudy 2100 ft
Overcast 2600 ft
2020/01/20 16:52 KCQX 201652Z AUTO 32010G18KT 270V360 4SM -SN BKN021 OVC026 M04/M08 A3012 RMK AO2 SLP200 P0000 T10391078